sensor_id;sensor_type;location;lat;lon;timestamp;P1;durP1;ratioP1;P2;durP2;ratioP2
44985;SDS011;30721;49.380;7.736;2023-04-16T00:02:09;8.80;;;6.28;;
44985;SDS011;30721;49.380;7.736;2023-04-16T00:04:35;9.77;;;6.38;;
44985;SDS011;30721;49.380;7.736;2023-04-16T00:07:00;8.32;;;5.88;;
44985;SDS011;30721;49.380;7.736;2023-04-16T00:09:26;8.35;;;5.60;;
44985;SDS011;30721;49.380;7.736;2023-04-16T00:11:51;8.50;;;5.50;;
44985;SDS011;30721;49.380;7.736;2023-04-16T00:14:17;8.50;;;5.82;;
44985;SDS011;30721;49.380;7.736;2023-04-16T00:16:42;9.88;;;6.32;;
44985;SDS011;30721;49.380;7.736;2023-04-16T00:19:08;9.68;;;6.32;;
44985;SDS011;30721;49.380;7.736;2023-04-16T00:21:33;8.63;;;5.40;;
44985;SDS011;30721;49.380;7.736;2023-04-16T00:23:58;8.57;;;5.22;;
44985;SDS011;30721;49.380;7.736;2023-04-16T00:26:24;7.68;;;5.80;;
44985;SDS011;30721;49.380;7.736;2023-04-16T00:28:49;10.32;;;5.65;;
44985;SDS011;30721;49.380;7.736;2023-04-16T00:31:15;8.63;;;5.35;;
44985;SDS011;30721;49.380;7.736;2023-04-16T00:33:40;7.72;;;5.32;;
44985;SDS011;30721;49.380;7.736;2023-04-16T00:36:06;8.85;;;5.63;;
44985;SDS011;30721;49.380;7.736;2023-04-16T00:38:31;8.15;;;5.40;;
44985;SDS011;30721;49.380;7.736;2023-04-16T00:40:57;8.90;;;5.43;;
44985;SDS011;30721;49.380;7.736;2023-04-16T00:43:23;7.88;;;5.25;;
44985;SDS011;30721;49.380;7.736;2023-04-16T00:45:49;8.75;;;6.30;;
44985;SDS011;30721;49.380;7.736;2023-04-16T00:48:16;8.90;;;5.63;;
44985;SDS011;30721;49.380;7.736;2023-04-16T00:50:41;8.85;;;4.95;;
44985;SDS011;30721;49.380;7.736;2023-04-16T00:53:07;8.93;;;5.20;;
44985;SDS011;30721;49.380;7.736;2023-04-16T00:55:32;8.32;;;5.32;;
44985;SDS011;30721;49.380;7.736;2023-04-16T00:57:58;8.75;;;5.60;;
44985;SDS011;30721;49.380;7.736;2023-04-16T01:00:24;7.43;;;4.80;;
44985;SDS011;30721;49.380;7.736;2023-04-16T01:02:50;6.90;;;4.53;;
44985;SDS011;30721;49.380;7.736;2023-04-16T01:05:17;8.75;;;5.25;;
44985;SDS011;30721;49.380;7.736;2023-04-16T01:07:43;8.40;;;5.13;;
44985;SDS011;30721;49.380;7.736;2023-04-16T01:10:08;7.28;;;5.03;;
44985;SDS011;30721;49.380;7.736;2023-04-16T01:12:34;8.10;;;4.88;;
44985;SDS011;30721;49.380;7.736;2023-04-16T01:15:00;8.40;;;5.43;;
44985;SDS011;30721;49.380;7.736;2023-04-16T01:17:25;7.57;;;4.88;;
44985;SDS011;30721;49.380;7.736;2023-04-16T01:19:51;8.38;;;5.53;;
44985;SDS011;30721;49.380;7.736;2023-04-16T01:22:16;8.85;;;5.00;;
44985;SDS011;30721;49.380;7.736;2023-04-16T01:24:41;8.02;;;5.20;;
44985;SDS011;30721;49.380;7.736;2023-04-16T01:27:07;7.13;;;4.57;;
44985;SDS011;30721;49.380;7.736;2023-04-16T01:29:32;7.97;;;5.30;;
44985;SDS011;30721;49.380;7.736;2023-04-16T01:31:59;7.93;;;5.63;;
44985;SDS011;30721;49.380;7.736;2023-04-16T01:34:24;7.85;;;4.43;;
44985;SDS011;30721;49.380;7.736;2023-04-16T01:36:50;7.82;;;5.00;;
44985;SDS011;30721;49.380;7.736;2023-04-16T01:39:15;8.65;;;5.40;;
44985;SDS011;30721;49.380;7.736;2023-04-16T01:41:43;6.18;;;4.18;;
44985;SDS011;30721;49.380;7.736;2023-04-16T01:44:09;6.82;;;4.65;;
44985;SDS011;30721;49.380;7.736;2023-04-16T01:46:34;7.97;;;4.80;;
44985;SDS011;30721;49.380;7.736;2023-04-16T01:49:00;7.53;;;4.88;;
44985;SDS011;30721;49.380;7.736;2023-04-16T01:51:26;8.43;;;5.10;;
44985;SDS011;30721;49.380;7.736;2023-04-16T01:53:52;9.00;;;5.40;;
44985;SDS011;30721;49.380;7.736;2023-04-16T01:56:18;7.40;;;5.05;;
44985;SDS011;30721;49.380;7.736;2023-04-16T01:58:43;6.78;;;4.40;;
44985;SDS011;30721;49.380;7.736;2023-04-16T02:01:10;7.95;;;4.82;;
44985;SDS011;30721;49.380;7.736;2023-04-16T02:03:36;7.55;;;5.22;;
44985;SDS011;30721;49.380;7.736;2023-04-16T02:06:01;7.03;;;5.35;;
44985;SDS011;30721;49.380;7.736;2023-04-16T02:08:27;7.43;;;4.65;;
44985;SDS011;30721;49.380;7.736;2023-04-16T02:10:52;8.38;;;5.22;;
44985;SDS011;30721;49.380;7.736;2023-04-16T02:13:18;9.52;;;5.43;;
44985;SDS011;30721;49.380;7.736;2023-04-16T02:15:44;7.63;;;4.65;;
44985;SDS011;30721;49.380;7.736;2023-04-16T02:18:11;7.57;;;5.05;;
44985;SDS011;30721;49.380;7.736;2023-04-16T02:20:40;7.82;;;4.60;;
44985;SDS011;30721;49.380;7.736;2023-04-16T02:23:06;10.05;;;5.90;;
44985;SDS011;30721;49.380;7.736;2023-04-16T02:25:36;7.85;;;5.10;;
44985;SDS011;30721;49.380;7.736;2023-04-16T02:28:03;9.80;;;5.22;;
44985;SDS011;30721;49.380;7.736;2023-04-16T02:30:28;9.30;;;5.57;;
44985;SDS011;30721;49.380;7.736;2023-04-16T02:32:55;10.30;;;6.18;;
44985;SDS011;30721;49.380;7.736;2023-04-16T02:35:20;12.07;;;6.50;;
44985;SDS011;30721;49.380;7.736;2023-04-16T02:37:45;11.65;;;6.95;;
44985;SDS011;30721;49.380;7.736;2023-04-16T02:40:11;8.35;;;5.93;;
44985;SDS011;30721;49.380;7.736;2023-04-16T02:42:36;11.82;;;6.20;;
44985;SDS011;30721;49.380;7.736;2023-04-16T02:45:02;11.23;;;6.65;;
44985;SDS011;30721;49.380;7.736;2023-04-16T02:47:27;9.68;;;5.72;;
44985;SDS011;30721;49.380;7.736;2023-04-16T02:49:53;10.63;;;5.97;;
44985;SDS011;30721;49.380;7.736;2023-04-16T02:52:18;9.38;;;6.68;;
44985;SDS011;30721;49.380;7.736;2023-04-16T02:54:43;10.35;;;6.50;;
44985;SDS011;30721;49.380;7.736;2023-04-16T02:57:09;9.32;;;6.22;;
44985;SDS011;30721;49.380;7.736;2023-04-16T02:59:34;9.88;;;5.68;;
44985;SDS011;30721;49.380;7.736;2023-04-16T03:02:00;11.13;;;5.55;;
44985;SDS011;30721;49.380;7.736;2023-04-16T03:04:25;9.65;;;5.63;;
44985;SDS011;30721;49.380;7.736;2023-04-16T03:06:51;8.35;;;5.38;;
44985;SDS011;30721;49.380;7.736;2023-04-16T03:09:16;9.90;;;6.68;;
44985;SDS011;30721;49.380;7.736;2023-04-16T03:11:42;10.57;;;5.82;;
44985;SDS011;30721;49.380;7.736;2023-04-16T03:14:07;9.95;;;6.05;;
44985;SDS011;30721;49.380;7.736;2023-04-16T03:16:33;8.68;;;5.85;;
44985;SDS011;30721;49.380;7.736;2023-04-16T03:18:58;8.98;;;6.05;;
44985;SDS011;30721;49.380;7.736;2023-04-16T03:21:24;9.80;;;5.50;;
44985;SDS011;30721;49.380;7.736;2023-04-16T03:23:51;9.73;;;6.15;;
44985;SDS011;30721;49.380;7.736;2023-04-16T03:26:17;9.68;;;5.50;;
44985;SDS011;30721;49.380;7.736;2023-04-16T03:28:43;11.07;;;6.40;;
44985;SDS011;30721;49.380;7.736;2023-04-16T03:31:08;10.05;;;5.65;;
44985;SDS011;30721;49.380;7.736;2023-04-16T03:33:34;10.48;;;6.10;;
44985;SDS011;30721;49.380;7.736;2023-04-16T03:35:59;10.02;;;6.35;;
44985;SDS011;30721;49.380;7.736;2023-04-16T03:38:25;11.57;;;6.50;;
44985;SDS011;30721;49.380;7.736;2023-04-16T03:40:50;9.13;;;6.03;;
44985;SDS011;30721;49.380;7.736;2023-04-16T03:43:16;10.38;;;6.47;;
44985;SDS011;30721;49.380;7.736;2023-04-16T03:45:45;10.77;;;5.95;;
44985;SDS011;30721;49.380;7.736;2023-04-16T03:48:11;11.30;;;5.72;;
44985;SDS011;30721;49.380;7.736;2023-04-16T03:50:37;10.20;;;6.10;;
44985;SDS011;30721;49.380;7.736;2023-04-16T03:53:02;11.13;;;6.47;;
44985;SDS011;30721;49.380;7.736;2023-04-16T03:55:28;10.20;;;5.95;;
44985;SDS011;30721;49.380;7.736;2023-04-16T03:57:53;10.35;;;6.18;;
44985;SDS011;30721;49.380;7.736;2023-04-16T04:00:18;10.75;;;6.88;;
44985;SDS011;30721;49.380;7.736;2023-04-16T04:02:44;9.95;;;6.25;;
44985;SDS011;30721;49.380;7.736;2023-04-16T04:05:09;12.18;;;6.57;;
44985;SDS011;30721;49.380;7.736;2023-04-16T04:07:35;11.20;;;6.85;;
44985;SDS011;30721;49.380;7.736;2023-04-16T04:10:00;12.77;;;6.47;;
44985;SDS011;30721;49.380;7.736;2023-04-16T04:12:26;10.30;;;6.35;;
44985;SDS011;30721;49.380;7.736;2023-04-16T04:14:51;10.93;;;6.13;;
44985;SDS011;30721;49.380;7.736;2023-04-16T04:17:17;14.25;;;7.70;;
44985;SDS011;30721;49.380;7.736;2023-04-16T04:19:42;10.45;;;5.82;;
44985;SDS011;30721;49.380;7.736;2023-04-16T04:22:08;9.57;;;5.88;;
44985;SDS011;30721;49.380;7.736;2023-04-16T04:24:33;11.60;;;5.97;;
44985;SDS011;30721;49.380;7.736;2023-04-16T04:26:58;10.07;;;6.63;;
44985;SDS011;30721;49.380;7.736;2023-04-16T04:29:24;12.05;;;6.82;;
44985;SDS011;30721;49.380;7.736;2023-04-16T04:31:50;14.57;;;7.95;;
44985;SDS011;30721;49.380;7.736;2023-04-16T04:34:15;11.48;;;6.82;;
44985;SDS011;30721;49.380;7.736;2023-04-16T04:36:41;11.70;;;6.65;;
44985;SDS011;30721;49.380;7.736;2023-04-16T04:39:06;11.23;;;6.78;;
44985;SDS011;30721;49.380;7.736;2023-04-16T04:41:31;15.73;;;8.50;;
44985;SDS011;30721;49.380;7.736;2023-04-16T04:43:57;14.70;;;7.70;;
44985;SDS011;30721;49.380;7.736;2023-04-16T04:46:23;15.45;;;7.85;;
44985;SDS011;30721;49.380;7.736;2023-04-16T04:48:48;12.82;;;7.50;;
44985;SDS011;30721;49.380;7.736;2023-04-16T04:51:13;12.98;;;7.07;;
44985;SDS011;30721;49.380;7.736;2023-04-16T04:53:39;14.00;;;7.25;;
44985;SDS011;30721;49.380;7.736;2023-04-16T04:56:05;14.05;;;7.85;;
44985;SDS011;30721;49.380;7.736;2023-04-16T04:58:30;10.98;;;6.82;;
44985;SDS011;30721;49.380;7.736;2023-04-16T05:00:55;14.70;;;8.07;;
44985;SDS011;30721;49.380;7.736;2023-04-16T05:03:21;13.55;;;7.32;;
44985;SDS011;30721;49.380;7.736;2023-04-16T05:05:46;13.15;;;6.95;;
44985;SDS011;30721;49.380;7.736;2023-04-16T05:08:12;13.15;;;7.18;;
44985;SDS011;30721;49.380;7.736;2023-04-16T05:10:37;14.52;;;8.02;;
44985;SDS011;30721;49.380;7.736;2023-04-16T05:13:03;13.25;;;7.95;;
44985;SDS011;30721;49.380;7.736;2023-04-16T05:15:28;14.13;;;7.93;;
44985;SDS011;30721;49.380;7.736;2023-04-16T05:17:54;12.07;;;7.63;;
44985;SDS011;30721;49.380;7.736;2023-04-16T05:20:22;14.45;;;7.50;;
44985;SDS011;30721;49.380;7.736;2023-04-16T05:22:48;11.70;;;7.10;;
44985;SDS011;30721;49.380;7.736;2023-04-16T05:25:14;11.48;;;6.60;;
44985;SDS011;30721;49.380;7.736;2023-04-16T05:27:41;13.82;;;7.30;;
44985;SDS011;30721;49.380;7.736;2023-04-16T05:30:07;13.48;;;7.43;;
44985;SDS011;30721;49.380;7.736;2023-04-16T05:32:33;11.43;;;6.40;;
44985;SDS011;30721;49.380;7.736;2023-04-16T05:34:58;12.40;;;6.63;;
44985;SDS011;30721;49.380;7.736;2023-04-16T05:37:24;13.68;;;7.47;;
44985;SDS011;30721;49.380;7.736;2023-04-16T05:39:49;13.60;;;7.28;;
44985;SDS011;30721;49.380;7.736;2023-04-16T05:42:15;12.00;;;6.90;;
44985;SDS011;30721;49.380;7.736;2023-04-16T05:44:40;12.43;;;6.95;;
44985;SDS011;30721;49.380;7.736;2023-04-16T05:47:06;12.32;;;7.10;;
44985;SDS011;30721;49.380;7.736;2023-04-16T05:49:34;13.82;;;7.75;;
44985;SDS011;30721;49.380;7.736;2023-04-16T05:52:01;12.18;;;8.18;;
44985;SDS011;30721;49.380;7.736;2023-04-16T05:54:26;12.70;;;6.93;;
44985;SDS011;30721;49.380;7.736;2023-04-16T05:56:52;11.57;;;6.80;;
44985;SDS011;30721;49.380;7.736;2023-04-16T05:59:17;13.85;;;7.07;;
44985;SDS011;30721;49.380;7.736;2023-04-16T06:01:43;13.60;;;7.28;;
44985;SDS011;30721;49.380;7.736;2023-04-16T06:04:08;12.13;;;6.93;;
44985;SDS011;30721;49.380;7.736;2023-04-16T06:06:33;13.77;;;6.80;;
44985;SDS011;30721;49.380;7.736;2023-04-16T06:09:01;13.00;;;6.65;;
44985;SDS011;30721;49.380;7.736;2023-04-16T06:11:28;12.13;;;7.80;;
44985;SDS011;30721;49.380;7.736;2023-04-16T06:13:54;11.82;;;6.90;;
44985;SDS011;30721;49.380;7.736;2023-04-16T06:16:19;12.55;;;7.85;;
44985;SDS011;30721;49.380;7.736;2023-04-16T06:18:44;14.55;;;8.02;;
44985;SDS011;30721;49.380;7.736;2023-04-16T06:21:10;10.10;;;6.07;;
44985;SDS011;30721;49.380;7.736;2023-04-16T06:23:35;12.43;;;6.85;;
44985;SDS011;30721;49.380;7.736;2023-04-16T06:26:01;12.95;;;7.03;;
44985;SDS011;30721;49.380;7.736;2023-04-16T06:28:26;14.55;;;7.70;;
44985;SDS011;30721;49.380;7.736;2023-04-16T06:30:52;11.80;;;7.35;;
44985;SDS011;30721;49.380;7.736;2023-04-16T06:33:17;12.40;;;7.68;;
44985;SDS011;30721;49.380;7.736;2023-04-16T06:35:42;13.13;;;7.68;;
44985;SDS011;30721;49.380;7.736;2023-04-16T06:38:08;11.68;;;6.47;;
44985;SDS011;30721;49.380;7.736;2023-04-16T06:40:33;11.95;;;7.32;;
44985;SDS011;30721;49.380;7.736;2023-04-16T06:43:01;13.13;;;7.70;;
44985;SDS011;30721;49.380;7.736;2023-04-16T06:45:26;12.85;;;7.88;;
44985;SDS011;30721;49.380;7.736;2023-04-16T06:47:52;12.98;;;7.45;;
44985;SDS011;30721;49.380;7.736;2023-04-16T06:50:17;13.82;;;8.18;;
44985;SDS011;30721;49.380;7.736;2023-04-16T06:52:43;13.02;;;7.82;;
44985;SDS011;30721;49.380;7.736;2023-04-16T06:55:08;14.70;;;7.57;;
44985;SDS011;30721;49.380;7.736;2023-04-16T06:57:34;12.30;;;7.60;;
44985;SDS011;30721;49.380;7.736;2023-04-16T07:00:00;12.45;;;6.90;;
44985;SDS011;30721;49.380;7.736;2023-04-16T07:02:27;11.68;;;6.95;;
44985;SDS011;30721;49.380;7.736;2023-04-16T07:04:52;14.60;;;8.70;;
44985;SDS011;30721;49.380;7.736;2023-04-16T07:07:21;12.98;;;7.07;;
44985;SDS011;30721;49.380;7.736;2023-04-16T07:09:48;12.98;;;7.80;;
44985;SDS011;30721;49.380;7.736;2023-04-16T07:12:13;13.38;;;7.45;;
44985;SDS011;30721;49.380;7.736;2023-04-16T07:14:39;13.98;;;7.93;;
44985;SDS011;30721;49.380;7.736;2023-04-16T07:17:04;13.07;;;7.85;;
44985;SDS011;30721;49.380;7.736;2023-04-16T07:19:30;13.88;;;7.88;;
44985;SDS011;30721;49.380;7.736;2023-04-16T07:21:59;12.40;;;7.90;;
44985;SDS011;30721;49.380;7.736;2023-04-16T07:24:25;11.90;;;6.55;;
44985;SDS011;30721;49.380;7.736;2023-04-16T07:26:51;14.02;;;8.18;;
44985;SDS011;30721;49.380;7.736;2023-04-16T07:29:16;12.13;;;7.15;;
44985;SDS011;30721;49.380;7.736;2023-04-16T07:31:42;14.07;;;7.07;;
44985;SDS011;30721;49.380;7.736;2023-04-16T07:34:07;14.50;;;7.63;;
44985;SDS011;30721;49.380;7.736;2023-04-16T07:36:33;12.10;;;7.18;;
44985;SDS011;30721;49.380;7.736;2023-04-16T07:38:59;13.32;;;7.00;;
44985;SDS011;30721;49.380;7.736;2023-04-16T07:41:25;11.57;;;6.97;;
44985;SDS011;30721;49.380;7.736;2023-04-16T07:43:50;11.90;;;6.90;;
44985;SDS011;30721;49.380;7.736;2023-04-16T07:46:15;11.20;;;6.65;;
44985;SDS011;30721;49.380;7.736;2023-04-16T07:48:41;10.77;;;6.43;;
44985;SDS011;30721;49.380;7.736;2023-04-16T07:51:07;12.45;;;7.25;;
44985;SDS011;30721;49.380;7.736;2023-04-16T07:53:32;13.13;;;7.28;;
44985;SDS011;30721;49.380;7.736;2023-04-16T07:55:58;11.35;;;6.30;;
44985;SDS011;30721;49.380;7.736;2023-04-16T07:58:23;9.88;;;6.05;;
44985;SDS011;30721;49.380;7.736;2023-04-16T08:00:49;13.98;;;7.63;;
44985;SDS011;30721;49.380;7.736;2023-04-16T08:03:14;11.73;;;6.13;;
44985;SDS011;30721;49.380;7.736;2023-04-16T08:05:40;11.20;;;6.30;;
44985;SDS011;30721;49.380;7.736;2023-04-16T08:08:05;10.93;;;6.18;;
44985;SDS011;30721;49.380;7.736;2023-04-16T08:10:31;9.18;;;5.95;;
44985;SDS011;30721;49.380;7.736;2023-04-16T08:12:59;11.75;;;6.50;;
44985;SDS011;30721;49.380;7.736;2023-04-16T08:15:25;11.25;;;6.57;;
44985;SDS011;30721;49.380;7.736;2023-04-16T08:17:50;9.85;;;6.15;;
44985;SDS011;30721;49.380;7.736;2023-04-16T08:20:16;10.10;;;6.90;;
44985;SDS011;30721;49.380;7.736;2023-04-16T08:22:42;11.60;;;6.30;;
44985;SDS011;30721;49.380;7.736;2023-04-16T08:25:08;10.48;;;6.00;;
44985;SDS011;30721;49.380;7.736;2023-04-16T08:27:33;11.98;;;6.93;;
44985;SDS011;30721;49.380;7.736;2023-04-16T08:29:59;11.18;;;6.38;;
44985;SDS011;30721;49.380;7.736;2023-04-16T08:32:25;10.07;;;6.28;;
44985;SDS011;30721;49.380;7.736;2023-04-16T08:34:53;10.50;;;5.97;;
44985;SDS011;30721;49.380;7.736;2023-04-16T08:37:18;10.45;;;6.38;;
44985;SDS011;30721;49.380;7.736;2023-04-16T08:39:44;10.45;;;6.32;;
44985;SDS011;30721;49.380;7.736;2023-04-16T08:42:12;9.23;;;6.20;;
44985;SDS011;30721;49.380;7.736;2023-04-16T08:44:45;9.85;;;6.00;;
44985;SDS011;30721;49.380;7.736;2023-04-16T08:47:12;10.27;;;5.70;;
44985;SDS011;30721;49.380;7.736;2023-04-16T08:49:43;13.23;;;7.22;;
44985;SDS011;30721;49.380;7.736;2023-04-16T08:52:13;11.00;;;5.45;;
44985;SDS011;30721;49.380;7.736;2023-04-16T08:57:29;10.55;;;5.78;;
44985;SDS011;30721;49.380;7.736;2023-04-16T08:59:57;11.30;;;6.47;;
44985;SDS011;30721;49.380;7.736;2023-04-16T09:02:26;10.63;;;6.03;;
44985;SDS011;30721;49.380;7.736;2023-04-16T09:04:51;11.38;;;6.25;;
44985;SDS011;30721;49.380;7.736;2023-04-16T09:07:24;9.20;;;5.72;;
44985;SDS011;30721;49.380;7.736;2023-04-16T09:09:51;10.82;;;7.40;;
44985;SDS011;30721;49.380;7.736;2023-04-16T09:12:17;9.07;;;6.00;;
44985;SDS011;30721;49.380;7.736;2023-04-16T09:14:46;9.48;;;6.45;;
44985;SDS011;30721;49.380;7.736;2023-04-16T09:17:13;12.45;;;6.78;;
44985;SDS011;30721;49.380;7.736;2023-04-16T09:19:40;11.05;;;6.35;;
44985;SDS011;30721;49.380;7.736;2023-04-16T09:22:05;10.40;;;6.40;;
44985;SDS011;30721;49.380;7.736;2023-04-16T09:24:31;11.43;;;6.43;;
44985;SDS011;30721;49.380;7.736;2023-04-16T09:26:56;11.10;;;5.88;;
44985;SDS011;30721;49.380;7.736;2023-04-16T09:29:38;10.15;;;6.20;;
44985;SDS011;30721;49.380;7.736;2023-04-16T09:32:05;10.68;;;6.32;;
44985;SDS011;30721;49.380;7.736;2023-04-16T09:34:52;10.05;;;6.10;;
44985;SDS011;30721;49.380;7.736;2023-04-16T09:37:17;9.75;;;5.90;;
44985;SDS011;30721;49.380;7.736;2023-04-16T09:39:43;8.98;;;5.85;;
44985;SDS011;30721;49.380;7.736;2023-04-16T09:42:12;10.10;;;6.00;;
44985;SDS011;30721;49.380;7.736;2023-04-16T09:44:38;10.32;;;5.95;;
44985;SDS011;30721;49.380;7.736;2023-04-16T09:47:07;9.70;;;5.60;;
44985;SDS011;30721;49.380;7.736;2023-04-16T09:49:43;9.95;;;5.55;;
44985;SDS011;30721;49.380;7.736;2023-04-16T09:52:12;10.32;;;6.18;;
44985;SDS011;30721;49.380;7.736;2023-04-16T09:54:46;10.00;;;5.38;;
44985;SDS011;30721;49.380;7.736;2023-04-16T09:57:35;10.25;;;5.88;;
44985;SDS011;30721;49.380;7.736;2023-04-16T10:00:03;11.02;;;6.63;;
44985;SDS011;30721;49.380;7.736;2023-04-16T10:02:30;10.23;;;6.93;;
44985;SDS011;30721;49.380;7.736;2023-04-16T10:04:57;9.27;;;6.13;;
44985;SDS011;30721;49.380;7.736;2023-04-16T10:07:30;10.55;;;6.75;;
44985;SDS011;30721;49.380;7.736;2023-04-16T10:09:57;11.45;;;6.53;;
44985;SDS011;30721;49.380;7.736;2023-04-16T10:12:23;11.60;;;6.65;;
44985;SDS011;30721;49.380;7.736;2023-04-16T10:14:48;10.40;;;6.35;;
44985;SDS011;30721;49.380;7.736;2023-04-16T10:17:14;13.80;;;7.15;;
44985;SDS011;30721;49.380;7.736;2023-04-16T10:19:40;12.45;;;7.00;;
44985;SDS011;30721;49.380;7.736;2023-04-16T10:22:06;11.70;;;7.63;;
44985;SDS011;30721;49.380;7.736;2023-04-16T10:24:32;11.02;;;6.82;;
44985;SDS011;30721;49.380;7.736;2023-04-16T10:26:58;11.48;;;6.68;;
44985;SDS011;30721;49.380;7.736;2023-04-16T10:29:25;12.30;;;7.65;;
44985;SDS011;30721;49.380;7.736;2023-04-16T10:31:52;11.38;;;7.15;;
44985;SDS011;30721;49.380;7.736;2023-04-16T10:34:18;11.13;;;6.70;;
44985;SDS011;30721;49.380;7.736;2023-04-16T10:36:49;10.82;;;7.15;;
44985;SDS011;30721;49.380;7.736;2023-04-16T10:39:23;9.93;;;6.57;;
44985;SDS011;30721;49.380;7.736;2023-04-16T10:41:50;11.30;;;6.70;;
44985;SDS011;30721;49.380;7.736;2023-04-16T10:44:31;11.25;;;6.30;;
44985;SDS011;30721;49.380;7.736;2023-04-16T10:46:58;9.65;;;5.55;;
44985;SDS011;30721;49.380;7.736;2023-04-16T10:49:24;11.13;;;6.60;;
44985;SDS011;30721;49.380;7.736;2023-04-16T10:51:53;11.98;;;7.30;;
44985;SDS011;30721;49.380;7.736;2023-04-16T10:56:49;9.32;;;5.93;;
44985;SDS011;30721;49.380;7.736;2023-04-16T10:59:17;11.75;;;6.88;;
44985;SDS011;30721;49.380;7.736;2023-04-16T11:01:49;11.10;;;6.47;;
44985;SDS011;30721;49.380;7.736;2023-04-16T11:15:06;14.45;;;7.57;;
44985;SDS011;30721;49.380;7.736;2023-04-16T11:20:01;11.88;;;6.88;;
44985;SDS011;30721;49.380;7.736;2023-04-16T11:22:27;15.10;;;9.52;;
44985;SDS011;30721;49.380;7.736;2023-04-16T11:24:53;20.48;;;12.32;;
44985;SDS011;30721;49.380;7.736;2023-04-16T11:27:20;21.17;;;13.23;;
44985;SDS011;30721;49.380;7.736;2023-04-16T11:29:45;16.10;;;9.15;;
44985;SDS011;30721;49.380;7.736;2023-04-16T11:32:21;16.50;;;9.40;;
44985;SDS011;30721;49.380;7.736;2023-04-16T11:34:46;13.30;;;8.00;;
44985;SDS011;30721;49.380;7.736;2023-04-16T11:37:12;14.20;;;7.75;;
44985;SDS011;30721;49.380;7.736;2023-04-16T11:39:47;21.70;;;10.90;;
44985;SDS011;30721;49.380;7.736;2023-04-16T11:42:20;20.25;;;10.85;;
44985;SDS011;30721;49.380;7.736;2023-04-16T11:44:50;22.27;;;13.38;;
44985;SDS011;30721;49.380;7.736;2023-04-16T11:47:19;14.80;;;8.15;;
44985;SDS011;30721;49.380;7.736;2023-04-16T11:49:45;13.57;;;9.18;;
44985;SDS011;30721;49.380;7.736;2023-04-16T11:52:11;14.77;;;8.00;;
44985;SDS011;30721;49.380;7.736;2023-04-16T11:54:36;15.07;;;8.30;;
44985;SDS011;30721;49.380;7.736;2023-04-16T11:57:02;13.57;;;7.82;;
44985;SDS011;30721;49.380;7.736;2023-04-16T11:59:30;16.40;;;9.23;;
44985;SDS011;30721;49.380;7.736;2023-04-16T12:01:57;16.77;;;8.35;;
44985;SDS011;30721;49.380;7.736;2023-04-16T12:04:23;17.17;;;9.18;;
44985;SDS011;30721;49.380;7.736;2023-04-16T12:07:03;15.35;;;8.27;;
44985;SDS011;30721;49.380;7.736;2023-04-16T12:09:30;15.88;;;9.27;;
44985;SDS011;30721;49.380;7.736;2023-04-16T12:11:56;18.40;;;10.50;;
44985;SDS011;30721;49.380;7.736;2023-04-16T12:14:22;15.77;;;9.50;;
44985;SDS011;30721;49.380;7.736;2023-04-16T12:16:47;15.55;;;9.23;;
44985;SDS011;30721;49.380;7.736;2023-04-16T12:19:13;16.35;;;10.38;;
44985;SDS011;30721;49.380;7.736;2023-04-16T12:21:46;19.08;;;12.25;;
44985;SDS011;30721;49.380;7.736;2023-04-16T12:24:13;18.83;;;10.25;;
44985;SDS011;30721;49.380;7.736;2023-04-16T12:26:42;18.10;;;10.38;;
44985;SDS011;30721;49.380;7.736;2023-04-16T12:29:22;16.73;;;9.50;;
44985;SDS011;30721;49.380;7.736;2023-04-16T12:31:49;13.70;;;8.60;;
44985;SDS011;30721;49.380;7.736;2023-04-16T12:34:15;18.00;;;9.13;;
44985;SDS011;30721;49.380;7.736;2023-04-16T12:36:42;16.25;;;9.35;;
44985;SDS011;30721;49.380;7.736;2023-04-16T12:39:08;16.70;;;9.02;;
44985;SDS011;30721;49.380;7.736;2023-04-16T12:41:38;15.70;;;9.30;;
44985;SDS011;30721;49.380;7.736;2023-04-16T12:44:08;18.58;;;11.13;;
44985;SDS011;30721;49.380;7.736;2023-04-16T12:46:38;14.50;;;8.63;;
44985;SDS011;30721;49.380;7.736;2023-04-16T12:49:04;26.75;;;16.08;;
44985;SDS011;30721;49.380;7.736;2023-04-16T12:51:31;18.90;;;11.68;;
44985;SDS011;30721;49.380;7.736;2023-04-16T12:53:57;22.77;;;14.05;;
44985;SDS011;30721;49.380;7.736;2023-04-16T12:56:22;29.73;;;19.63;;
44985;SDS011;30721;49.380;7.736;2023-04-16T12:58:48;18.98;;;11.63;;
44985;SDS011;30721;49.380;7.736;2023-04-16T13:01:20;21.13;;;13.50;;
44985;SDS011;30721;49.380;7.736;2023-04-16T13:03:45;21.70;;;14.55;;
44985;SDS011;30721;49.380;7.736;2023-04-16T13:06:12;16.83;;;10.35;;
44985;SDS011;30721;49.380;7.736;2023-04-16T13:08:38;17.02;;;11.32;;
44985;SDS011;30721;49.380;7.736;2023-04-16T13:11:04;17.85;;;10.35;;
44985;SDS011;30721;49.380;7.736;2023-04-16T13:13:30;22.95;;;14.35;;
44985;SDS011;30721;49.380;7.736;2023-04-16T13:15:56;17.75;;;11.68;;
44985;SDS011;30721;49.380;7.736;2023-04-16T13:18:21;22.40;;;13.80;;
44985;SDS011;30721;49.380;7.736;2023-04-16T13:20:47;22.55;;;14.07;;
44985;SDS011;30721;49.380;7.736;2023-04-16T13:23:12;17.83;;;12.63;;
44985;SDS011;30721;49.380;7.736;2023-04-16T13:25:38;19.75;;;12.30;;
44985;SDS011;30721;49.380;7.736;2023-04-16T13:28:03;20.73;;;11.20;;
44985;SDS011;30721;49.380;7.736;2023-04-16T13:30:29;18.10;;;11.05;;
44985;SDS011;30721;49.380;7.736;2023-04-16T13:32:55;18.98;;;11.77;;
44985;SDS011;30721;49.380;7.736;2023-04-16T13:35:21;18.35;;;11.15;;
44985;SDS011;30721;49.380;7.736;2023-04-16T13:37:46;18.73;;;11.52;;
44985;SDS011;30721;49.380;7.736;2023-04-16T13:40:12;17.80;;;10.15;;
44985;SDS011;30721;49.380;7.736;2023-04-16T13:42:37;19.58;;;11.43;;
44985;SDS011;30721;49.380;7.736;2023-04-16T13:45:03;18.92;;;11.88;;
44985;SDS011;30721;49.380;7.736;2023-04-16T13:47:29;21.10;;;12.73;;
44985;SDS011;30721;49.380;7.736;2023-04-16T13:49:54;20.02;;;11.15;;
44985;SDS011;30721;49.380;7.736;2023-04-16T13:52:20;18.75;;;11.55;;
44985;SDS011;30721;49.380;7.736;2023-04-16T13:54:46;18.92;;;10.93;;
44985;SDS011;30721;49.380;7.736;2023-04-16T13:57:11;21.10;;;11.73;;
44985;SDS011;30721;49.380;7.736;2023-04-16T13:59:37;17.52;;;11.48;;
44985;SDS011;30721;49.380;7.736;2023-04-16T14:02:02;18.88;;;11.77;;
44985;SDS011;30721;49.380;7.736;2023-04-16T14:04:29;20.00;;;11.85;;
44985;SDS011;30721;49.380;7.736;2023-04-16T14:06:55;16.30;;;10.55;;
44985;SDS011;30721;49.380;7.736;2023-04-16T14:09:21;17.52;;;10.93;;
44985;SDS011;30721;49.380;7.736;2023-04-16T14:11:46;18.33;;;12.18;;
44985;SDS011;30721;49.380;7.736;2023-04-16T14:14:12;23.95;;;14.45;;
44985;SDS011;30721;49.380;7.736;2023-04-16T14:16:37;20.55;;;13.80;;
44985;SDS011;30721;49.380;7.736;2023-04-16T14:19:03;24.75;;;15.57;;
44985;SDS011;30721;49.380;7.736;2023-04-16T14:21:29;43.33;;;25.50;;
44985;SDS011;30721;49.380;7.736;2023-04-16T14:23:55;23.30;;;14.30;;
44985;SDS011;30721;49.380;7.736;2023-04-16T14:26:21;18.67;;;12.20;;
44985;SDS011;30721;49.380;7.736;2023-04-16T14:28:46;20.77;;;13.77;;
44985;SDS011;30721;49.380;7.736;2023-04-16T14:31:12;22.17;;;14.05;;
44985;SDS011;30721;49.380;7.736;2023-04-16T14:33:37;19.73;;;13.13;;
44985;SDS011;30721;49.380;7.736;2023-04-16T14:36:03;23.60;;;15.40;;
44985;SDS011;30721;49.380;7.736;2023-04-16T14:38:29;32.97;;;21.38;;
44985;SDS011;30721;49.380;7.736;2023-04-16T14:40:55;25.05;;;15.88;;
44985;SDS011;30721;49.380;7.736;2023-04-16T14:43:20;29.88;;;19.13;;
44985;SDS011;30721;49.380;7.736;2023-04-16T14:45:46;24.50;;;15.88;;
44985;SDS011;30721;49.380;7.736;2023-04-16T14:48:11;25.05;;;15.18;;
44985;SDS011;30721;49.380;7.736;2023-04-16T14:50:37;34.53;;;22.58;;